Terminal Aerodrome Forecast
Issued by NWS

Current Version | Previous Version | Graphics & Text | Print | Product List | Glossary On
Versions: 1 2 3 4 5 6 7 8 9 10 11 12 13 14 15 16 17 18 19 20 21 22 23 24 25 26 27 28 29 30 31 32 33 34 35 36 37 38 39 40 41 42 43 44 45 46 47 48 49
000
FTUS41 KRNK 301126
TAFLWB
TAF
KLWB 301126Z 3012/3112 00000KT 1/4SM FG OVC001
      TEMPO 3012/3013 3SM BR SCT001 SCT035
     FM301400 27005KT P6SM SCT035
     FM301700 28006KT P6SM BKN035 BKN050
     FM310000 00000KT P6SM SCT050
     FM310700 00000KT 3SM BR SCT080
     FM310900 00000KT 1/4SM FG BKN001=

USA.gov is the U.S. government's official web portal to all federal, state and local government web resources and services.